Hobart, OK (73651)

7:29 PM CDT on June 23, 2017 (GMT -0500)
Hobart, OK | | Change Station

Elev 1273 ft 35.03 °N, 99.10 °W | Updated 10 seconds ago

Partly Cloudy
Partly Cloudy
84.4 °F
Feels Like 83 °F
N
11.0
Wind Variable Wind from NE
Gusts 23.0 mph

Today
High -- | Low -- °F
--% Chance of Precip.
Yesterday
High -- | Low -- °F
Precip. -- in
Pressure 29.87 in
Visibility 10.0 miles
Clouds Few 7500 ft
Heat Index 83 °F
Dew Point 56 °F
Humidity 37%
Rainfall 0.00 in
Snow Depth Not available.
6:23 AM 8:54 PM
Waning Crescent, 0% visible
METAR KHBR 232353Z AUTO 05020KT 10SM FEW075 33/13 A2993 RMK AO2 SLP113 T03280133 10350 20322 53004
Pressure 29.87 in
Visibility 10.0 miles
Clouds Few 7500 ft
Heat Index 83 °F
Dew Point 56 °F
Humidity 37%
Rainfall 0.00 in
Snow Depth Not available.
6:23 AM 8:54 PM
Waning Crescent, 0% visible
METAR KHBR 232353Z AUTO 05020KT 10SM FEW075 33/13 A2993 RMK AO2 SLP113 T03280133 10350 20322 53004

Get Severe Weather Alerts

Thanks for signing up!

Be on the lookout for a verification email in your inbox.

You'll start receiving the daily forecast at 6 AM.

×

10-Day Weather Forecast

Almanac

Astronomy

Jun. 23, 2017 Rise Set
Actual Time
Civil Twilight
Nautical Twilight
Astronomical Twilight
Moon
Length of Visible Light
Length of Day
Tomorrow will be .
, % of the Moon is Illuminated

Today's Extremes

State Highs State Lows

Community

WunderPhotos

Category 6

Welcome to Category 6. This is the collective home for Weather Underground's featured writeups by Dr. Jeff Masters (right), Bob Henson (left), Chris Burt, and other regular contributors.

Nearby

Air Quality

  Air Quality AQ Index Pollutant
Not available.

Snow Depth

Station Depth Elevation

Earthquake Activity

City Distance Mag. Time & Date
Minimum magnitude displayed is 2.5.

Coastal Water Temperatures

Place Temperature

Stations

Nearby Weather Stations

Station Location Temp. Windchill Dew Point Humidity Wind Precip. Elev Updated Type
                   

Watches & Warnings

There are currently no watches in effect.